sensor_id;sensor_type;location;lat;lon;timestamp;pressure;altitude;pressure_sealevel;temperature;humidity
27712;BME280;2377;51.734;8.950;2024-03-06T00:00:02;97938.03;;;7.88;100.00
27712;BME280;2377;51.734;8.950;2024-03-06T00:02:31;97935.88;;;7.84;100.00
27712;BME280;2377;51.734;8.950;2024-03-06T00:04:59;97934.91;;;7.79;100.00
27712;BME280;2377;51.734;8.950;2024-03-06T00:07:27;97938.78;;;7.75;100.00
27712;BME280;2377;51.734;8.950;2024-03-06T00:09:54;97946.38;;;7.68;100.00
27712;BME280;2377;51.734;8.950;2024-03-06T00:12:23;97943.81;;;7.61;100.00
27712;BME280;2377;51.734;8.950;2024-03-06T00:14:56;97951.22;;;7.56;100.00
27712;BME280;2377;51.734;8.950;2024-03-06T00:17:29;97948.66;;;7.50;100.00
27712;BME280;2377;51.734;8.950;2024-03-06T00:19:57;97959.03;;;7.48;100.00
27712;BME280;2377;51.734;8.950;2024-03-06T00:22:24;97958.22;;;7.41;100.00
27712;BME280;2377;51.734;8.950;2024-03-06T00:24:55;97957.78;;;7.37;100.00
27712;BME280;2377;51.734;8.950;2024-03-06T00:27:23;97956.41;;;7.35;100.00
27712;BME280;2377;51.734;8.950;2024-03-06T00:29:54;97960.72;;;7.34;100.00
27712;BME280;2377;51.734;8.950;2024-03-06T00:32:21;97956.97;;;7.30;100.00
27712;BME280;2377;51.734;8.950;2024-03-06T00:34:52;97967.53;;;7.27;100.00
27712;BME280;2377;51.734;8.950;2024-03-06T00:37:22;97961.06;;;7.25;100.00
27712;BME280;2377;51.734;8.950;2024-03-06T00:39:50;97965.16;;;7.26;100.00
27712;BME280;2377;51.734;8.950;2024-03-06T00:42:18;97970.63;;;7.23;100.00
27712;BME280;2377;51.734;8.950;2024-03-06T00:44:46;97966.69;;;7.20;100.00
27712;BME280;2377;51.734;8.950;2024-03-06T00:47:14;97975.28;;;7.19;100.00
27712;BME280;2377;51.734;8.950;2024-03-06T00:49:42;97982.13;;;7.18;100.00
27712;BME280;2377;51.734;8.950;2024-03-06T00:52:09;97983.13;;;7.17;100.00
27712;BME280;2377;51.734;8.950;2024-03-06T00:54:36;97978.81;;;7.18;100.00
27712;BME280;2377;51.734;8.950;2024-03-06T00:57:04;97982.72;;;7.20;100.00
27712;BME280;2377;51.734;8.950;2024-03-06T00:59:34;97986.06;;;7.21;100.00
27712;BME280;2377;51.734;8.950;2024-03-06T01:02:02;97988.41;;;7.23;100.00
27712;BME280;2377;51.734;8.950;2024-03-06T01:04:30;97990.19;;;7.22;100.00
27712;BME280;2377;51.734;8.950;2024-03-06T01:06:58;97998.38;;;7.24;100.00
27712;BME280;2377;51.734;8.950;2024-03-06T01:09:25;97998.03;;;7.27;100.00
27712;BME280;2377;51.734;8.950;2024-03-06T01:11:53;97999.78;;;7.27;100.00
27712;BME280;2377;51.734;8.950;2024-03-06T01:14:24;97994.50;;;7.28;100.00
27712;BME280;2377;51.734;8.950;2024-03-06T01:16:52;97993.91;;;7.26;100.00
27712;BME280;2377;51.734;8.950;2024-03-06T01:19:19;97992.94;;;7.27;100.00
27712;BME280;2377;51.734;8.950;2024-03-06T01:21:49;97987.44;;;7.24;100.00
27712;BME280;2377;51.734;8.950;2024-03-06T01:24:17;97992.91;;;7.20;100.00
27712;BME280;2377;51.734;8.950;2024-03-06T01:26:44;97995.63;;;7.19;100.00
27712;BME280;2377;51.734;8.950;2024-03-06T01:29:12;97997.34;;;7.12;100.00
27712;BME280;2377;51.734;8.950;2024-03-06T01:31:45;98001.81;;;7.10;100.00
27712;BME280;2377;51.734;8.950;2024-03-06T01:34:14;98000.25;;;7.09;100.00
27712;BME280;2377;51.734;8.950;2024-03-06T01:36:43;97999.47;;;7.08;100.00
27712;BME280;2377;51.734;8.950;2024-03-06T01:39:21;98008.66;;;7.09;100.00
27712;BME280;2377;51.734;8.950;2024-03-06T01:41:50;98012.97;;;7.09;100.00
27712;BME280;2377;51.734;8.950;2024-03-06T01:44:18;98011.97;;;7.10;100.00
27712;BME280;2377;51.734;8.950;2024-03-06T01:46:46;98015.91;;;7.12;100.00
27712;BME280;2377;51.734;8.950;2024-03-06T01:49:15;98012.22;;;7.15;100.00
27712;BME280;2377;51.734;8.950;2024-03-06T01:51:53;98016.34;;;7.16;100.00
27712;BME280;2377;51.734;8.950;2024-03-06T01:54:22;98011.25;;;7.16;100.00
27712;BME280;2377;51.734;8.950;2024-03-06T01:56:51;98014.78;;;7.15;100.00
27712;BME280;2377;51.734;8.950;2024-03-06T01:59:23;98019.28;;;7.19;100.00
27712;BME280;2377;51.734;8.950;2024-03-06T02:01:53;98021.03;;;7.19;100.00
27712;BME280;2377;51.734;8.950;2024-03-06T02:04:22;98025.16;;;7.20;100.00
27712;BME280;2377;51.734;8.950;2024-03-06T02:06:51;98020.69;;;7.22;100.00
27712;BME280;2377;51.734;8.950;2024-03-06T02:09:19;98019.09;;;7.21;100.00
27712;BME280;2377;51.734;8.950;2024-03-06T02:11:56;98024.19;;;7.21;100.00
27712;BME280;2377;51.734;8.950;2024-03-06T02:14:25;98017.53;;;7.20;100.00
27712;BME280;2377;51.734;8.950;2024-03-06T02:16:54;98015.00;;;7.20;100.00
27712;BME280;2377;51.734;8.950;2024-03-06T02:19:22;98011.47;;;7.21;100.00
27712;BME280;2377;51.734;8.950;2024-03-06T02:21:52;98019.09;;;7.21;100.00
27712;BME280;2377;51.734;8.950;2024-03-06T02:24:26;98020.69;;;7.22;100.00
27712;BME280;2377;51.734;8.950;2024-03-06T02:26:53;98020.31;;;7.25;100.00
27712;BME280;2377;51.734;8.950;2024-03-06T02:29:23;98024.63;;;7.25;100.00
27712;BME280;2377;51.734;8.950;2024-03-06T02:31:50;98026.34;;;7.24;100.00
27712;BME280;2377;51.734;8.950;2024-03-06T02:34:18;98034.97;;;7.23;100.00
27712;BME280;2377;51.734;8.950;2024-03-06T02:36:45;98025.78;;;7.22;100.00
27712;BME280;2377;51.734;8.950;2024-03-06T02:39:14;98023.41;;;7.20;100.00
27712;BME280;2377;51.734;8.950;2024-03-06T02:41:42;98027.72;;;7.20;100.00
27712;BME280;2377;51.734;8.950;2024-03-06T02:44:10;98031.19;;;7.19;100.00
27712;BME280;2377;51.734;8.950;2024-03-06T02:46:38;98027.72;;;7.20;100.00
27712;BME280;2377;51.734;8.950;2024-03-06T02:49:05;98029.44;;;7.19;100.00
27712;BME280;2377;51.734;8.950;2024-03-06T02:51:34;98037.88;;;7.20;100.00
27712;BME280;2377;51.734;8.950;2024-03-06T02:54:01;98033.94;;;7.17;100.00
27712;BME280;2377;51.734;8.950;2024-03-06T02:56:31;98036.28;;;7.19;100.00
27712;BME280;2377;51.734;8.950;2024-03-06T02:58:59;98036.28;;;7.19;100.00
27712;BME280;2377;51.734;8.950;2024-03-06T03:01:28;98040.59;;;7.18;100.00
27712;BME280;2377;51.734;8.950;2024-03-06T03:03:55;98036.28;;;7.19;100.00
27712;BME280;2377;51.734;8.950;2024-03-06T03:06:22;98039.59;;;7.13;100.00
27712;BME280;2377;51.734;8.950;2024-03-06T03:08:50;98030.38;;;7.12;100.00
27712;BME280;2377;51.734;8.950;2024-03-06T03:11:18;98040.75;;;7.10;100.00
27712;BME280;2377;51.734;8.950;2024-03-06T03:13:48;98035.06;;;7.08;100.00
27712;BME280;2377;51.734;8.950;2024-03-06T03:16:20;98038.53;;;7.07;100.00
27712;BME280;2377;51.734;8.950;2024-03-06T03:18:47;98042.69;;;7.08;100.00
27712;BME280;2377;51.734;8.950;2024-03-06T03:21:17;98047.16;;;7.06;100.00
27712;BME280;2377;51.734;8.950;2024-03-06T03:23:45;98057.13;;;7.08;100.00
27712;BME280;2377;51.734;8.950;2024-03-06T03:26:12;98054.56;;;7.08;100.00
27712;BME280;2377;51.734;8.950;2024-03-06T03:28:39;98056.16;;;7.09;100.00
27712;BME280;2377;51.734;8.950;2024-03-06T03:31:11;98062.03;;;7.09;100.00
27712;BME280;2377;51.734;8.950;2024-03-06T03:33:40;98058.53;;;7.10;100.00
27712;BME280;2377;51.734;8.950;2024-03-06T03:36:08;98060.25;;;7.10;100.00
27712;BME280;2377;51.734;8.950;2024-03-06T03:38:38;98065.53;;;7.08;100.00
27712;BME280;2377;51.734;8.950;2024-03-06T03:41:08;98070.81;;;7.07;100.00
27712;BME280;2377;51.734;8.950;2024-03-06T03:43:35;98074.91;;;7.08;100.00
27712;BME280;2377;51.734;8.950;2024-03-06T03:46:10;98073.19;;;7.08;100.00
27712;BME280;2377;51.734;8.950;2024-03-06T03:48:37;98084.13;;;7.09;100.00
27712;BME280;2377;51.734;8.950;2024-03-06T03:51:08;98072.97;;;7.10;100.00
27712;BME280;2377;51.734;8.950;2024-03-06T03:53:35;98072.97;;;7.10;100.00
27712;BME280;2377;51.734;8.950;2024-03-06T03:56:04;98072.19;;;7.09;100.00
27712;BME280;2377;51.734;8.950;2024-03-06T03:58:32;98069.47;;;7.11;100.00
27712;BME280;2377;51.734;8.950;2024-03-06T04:01:03;98072.97;;;7.10;100.00
27712;BME280;2377;51.734;8.950;2024-03-06T04:03:31;98070.44;;;7.10;100.00
27712;BME280;2377;51.734;8.950;2024-03-06T04:05:59;98080.00;;;7.08;100.00
27712;BME280;2377;51.734;8.950;2024-03-06T04:08:26;98081.56;;;7.09;100.00
27712;BME280;2377;51.734;8.950;2024-03-06T04:10:55;98079.81;;;7.09;100.00
27712;BME280;2377;51.734;8.950;2024-03-06T04:13:22;98080.59;;;7.10;100.00
27712;BME280;2377;51.734;8.950;2024-03-06T04:15:52;98091.38;;;7.12;100.00
27712;BME280;2377;51.734;8.950;2024-03-06T04:18:20;98091.91;;;7.07;100.00
27712;BME280;2377;51.734;8.950;2024-03-06T04:20:50;98085.81;;;7.02;100.00
27712;BME280;2377;51.734;8.950;2024-03-06T04:23:19;98083.81;;;6.97;100.00
27712;BME280;2377;51.734;8.950;2024-03-06T04:25:46;98086.53;;;6.95;100.00
27712;BME280;2377;51.734;8.950;2024-03-06T04:28:15;98089.28;;;6.94;100.00
27712;BME280;2377;51.734;8.950;2024-03-06T04:30:43;98090.41;;;6.91;100.00
27712;BME280;2377;51.734;8.950;2024-03-06T04:33:10;98088.84;;;6.90;100.00
27712;BME280;2377;51.734;8.950;2024-03-06T04:35:39;98094.91;;;6.89;100.00
27712;BME280;2377;51.734;8.950;2024-03-06T04:38:08;98098.22;;;6.90;100.00
27712;BME280;2377;51.734;8.950;2024-03-06T04:40:35;98106.22;;;6.87;100.00
27712;BME280;2377;51.734;8.950;2024-03-06T04:43:03;98107.94;;;6.86;100.00
27712;BME280;2377;51.734;8.950;2024-03-06T04:45:30;98106.75;;;6.82;100.00
27712;BME280;2377;51.734;8.950;2024-03-06T04:47:58;98109.28;;;6.82;100.00
27712;BME280;2377;51.734;8.950;2024-03-06T04:50:26;98112.63;;;6.83;100.00
27712;BME280;2377;51.734;8.950;2024-03-06T04:52:54;98104.63;;;6.86;100.00
27712;BME280;2377;51.734;8.950;2024-03-06T04:55:23;98114.63;;;6.87;100.00
27712;BME280;2377;51.734;8.950;2024-03-06T04:57:52;98107.59;;;6.89;100.00
27712;BME280;2377;51.734;8.950;2024-03-06T05:00:20;98117.41;;;6.92;100.00
27712;BME280;2377;51.734;8.950;2024-03-06T05:02:50;98114.69;;;6.94;100.00
27712;BME280;2377;51.734;8.950;2024-03-06T05:05:17;98116.84;;;6.97;100.00
27712;BME280;2377;51.734;8.950;2024-03-06T05:07:44;98126.84;;;6.98;100.00
27712;BME280;2377;51.734;8.950;2024-03-06T05:10:12;98119.81;;;7.01;100.00
27712;BME280;2377;51.734;8.950;2024-03-06T05:12:43;98130.78;;;7.01;100.00
27712;BME280;2377;51.734;8.950;2024-03-06T05:15:11;98133.50;;;6.99;100.00
27712;BME280;2377;51.734;8.950;2024-03-06T05:17:39;98136.81;;;7.00;100.00
27712;BME280;2377;51.734;8.950;2024-03-06T05:20:08;98140.13;;;7.01;100.00
27712;BME280;2377;51.734;8.950;2024-03-06T05:22:36;98138.41;;;7.01;100.00
27712;BME280;2377;51.734;8.950;2024-03-06T05:25:05;98147.19;;;6.98;100.00
27712;BME280;2377;51.734;8.950;2024-03-06T05:27:35;98146.38;;;6.98;100.00
27712;BME280;2377;51.734;8.950;2024-03-06T05:30:05;98144.03;;;6.96;100.00
27712;BME280;2377;51.734;8.950;2024-03-06T05:32:36;98142.44;;;6.95;100.00
27712;BME280;2377;51.734;8.950;2024-03-06T05:35:04;98147.53;;;6.95;100.00
27712;BME280;2377;51.734;8.950;2024-03-06T05:37:38;98149.44;;;6.93;100.00
27712;BME280;2377;51.734;8.950;2024-03-06T05:40:07;98165.50;;;6.94;100.00
27712;BME280;2377;51.734;8.950;2024-03-06T05:42:35;98166.63;;;6.91;100.00
27712;BME280;2377;51.734;8.950;2024-03-06T05:45:09;98167.59;;;6.90;100.00
27712;BME280;2377;51.734;8.950;2024-03-06T05:47:39;98168.75;;;6.88;100.00
27712;BME280;2377;51.734;8.950;2024-03-06T05:50:09;98168.91;;;6.86;100.00
27712;BME280;2377;51.734;8.950;2024-03-06T05:52:37;98181.00;;;6.84;100.00
27712;BME280;2377;51.734;8.950;2024-03-06T05:55:05;98180.59;;;6.81;100.00
27712;BME280;2377;51.734;8.950;2024-03-06T05:57:33;98177.63;;;6.77;100.00
27712;BME280;2377;51.734;8.950;2024-03-06T06:00:01;98181.13;;;6.76;100.00
27712;BME280;2377;51.734;8.950;2024-03-06T06:02:32;98179.97;;;6.78;100.00
27712;BME280;2377;51.734;8.950;2024-03-06T06:04:59;98173.16;;;6.79;100.00
27712;BME280;2377;51.734;8.950;2024-03-06T06:07:30;98182.34;;;6.80;100.00
27712;BME280;2377;51.734;8.950;2024-03-06T06:09:57;98180.59;;;6.81;100.00
27712;BME280;2377;51.734;8.950;2024-03-06T06:12:24;98191.19;;;6.84;100.00
27712;BME280;2377;51.734;8.950;2024-03-06T06:14:53;98189.25;;;6.86;100.00
27712;BME280;2377;51.734;8.950;2024-03-06T06:17:22;98193.38;;;6.87;100.00
27712;BME280;2377;51.734;8.950;2024-03-06T06:19:55;98197.22;;;6.83;100.00
27712;BME280;2377;51.734;8.950;2024-03-06T06:22:24;98203.88;;;6.84;100.00
27712;BME280;2377;51.734;8.950;2024-03-06T06:24:51;98208.63;;;6.87;100.00
27712;BME280;2377;51.734;8.950;2024-03-06T06:27:19;98213.72;;;6.87;100.00
27712;BME280;2377;51.734;8.950;2024-03-06T06:29:54;98207.84;;;6.87;100.00
27712;BME280;2377;51.734;8.950;2024-03-06T06:32:21;98213.72;;;6.87;100.00
27712;BME280;2377;51.734;8.950;2024-03-06T06:34:53;98221.31;;;6.87;100.00
27712;BME280;2377;51.734;8.950;2024-03-06T06:37:22;98221.31;;;6.87;100.00
27712;BME280;2377;51.734;8.950;2024-03-06T06:39:49;98221.31;;;6.87;100.00
27712;BME280;2377;51.734;8.950;2024-03-06T06:42:19;98217.03;;;6.88;100.00
27712;BME280;2377;51.734;8.950;2024-03-06T06:44:46;98225.78;;;6.85;100.00
27712;BME280;2377;51.734;8.950;2024-03-06T06:47:13;98232.34;;;6.80;100.00
27712;BME280;2377;51.734;8.950;2024-03-06T06:49:40;98236.66;;;6.79;100.00
27712;BME280;2377;51.734;8.950;2024-03-06T06:52:10;98237.63;;;6.78;100.00
27712;BME280;2377;51.734;8.950;2024-03-06T06:54:38;98244.88;;;6.81;100.00
27712;BME280;2377;51.734;8.950;2024-03-06T06:57:07;98244.53;;;6.84;100.00
27712;BME280;2377;51.734;8.950;2024-03-06T06:59:34;98249.06;;;6.89;100.00
27712;BME280;2377;51.734;8.950;2024-03-06T07:02:04;98257.94;;;6.93;100.00
27712;BME280;2377;51.734;8.950;2024-03-06T07:04:31;98252.69;;;6.94;100.00
27712;BME280;2377;51.734;8.950;2024-03-06T07:07:02;98260.91;;;6.96;100.00
27712;BME280;2377;51.734;8.950;2024-03-06T07:09:30;98257.41;;;6.97;100.00
27712;BME280;2377;51.734;8.950;2024-03-06T07:11:58;98257.84;;;7.01;100.00
27712;BME280;2377;51.734;8.950;2024-03-06T07:14:25;98256.69;;;7.04;100.00
27712;BME280;2377;51.734;8.950;2024-03-06T07:16:54;98257.91;;;7.08;100.00
27712;BME280;2377;51.734;8.950;2024-03-06T07:19:23;98262.41;;;7.06;100.00
27712;BME280;2377;51.734;8.950;2024-03-06T07:21:51;98269.22;;;7.05;100.00
27712;BME280;2377;51.734;8.950;2024-03-06T07:24:20;98281.75;;;7.07;100.00
27712;BME280;2377;51.734;8.950;2024-03-06T07:26:49;98282.53;;;7.07;100.00
27712;BME280;2377;51.734;8.950;2024-03-06T07:29:16;98284.47;;;7.05;100.00
27712;BME280;2377;51.734;8.950;2024-03-06T07:31:44;98291.50;;;7.03;100.00
27712;BME280;2377;51.734;8.950;2024-03-06T07:34:12;98289.28;;;7.00;100.00
27712;BME280;2377;51.734;8.950;2024-03-06T07:36:40;98295.78;;;7.03;100.00
27712;BME280;2377;51.734;8.950;2024-03-06T07:39:09;98297.16;;;7.05;100.00
27712;BME280;2377;51.734;8.950;2024-03-06T07:41:36;98311.28;;;7.08;100.00
27712;BME280;2377;51.734;8.950;2024-03-06T07:44:05;98300.16;;;7.09;100.00
27712;BME280;2377;51.734;8.950;2024-03-06T07:46:32;98309.19;;;7.11;100.00
27712;BME280;2377;51.734;8.950;2024-03-06T07:49:04;98316.19;;;7.09;100.00
27712;BME280;2377;51.734;8.950;2024-03-06T07:51:32;98317.59;;;7.12;100.00
27712;BME280;2377;51.734;8.950;2024-03-06T07:54:04;98318.56;;;7.11;100.00
27712;BME280;2377;51.734;8.950;2024-03-06T07:56:34;98323.66;;;7.11;100.00
27712;BME280;2377;51.734;8.950;2024-03-06T07:59:05;98312.50;;;7.12;100.00
27712;BME280;2377;51.734;8.950;2024-03-06T08:01:33;98321.34;;;7.16;100.00
27712;BME280;2377;51.734;8.950;2024-03-06T08:04:01;98317.06;;;7.16;100.00
27712;BME280;2377;51.734;8.950;2024-03-06T08:06:33;98332.75;;;7.20;100.00
27712;BME280;2377;51.734;8.950;2024-03-06T08:09:04;98332.22;;;7.25;100.00
27712;BME280;2377;51.734;8.950;2024-03-06T08:11:37;98336.16;;;7.27;100.00
27712;BME280;2377;51.734;8.950;2024-03-06T08:14:07;98336.94;;;7.28;100.00
27712;BME280;2377;51.734;8.950;2024-03-06T08:16:36;98342.03;;;7.28;100.00
27712;BME280;2377;51.734;8.950;2024-03-06T08:19:06;98341.06;;;7.29;100.00
27712;BME280;2377;51.734;8.950;2024-03-06T08:21:35;98339.91;;;7.31;100.00
27712;BME280;2377;51.734;8.950;2024-03-06T08:24:07;98352.47;;;7.33;100.00
27712;BME280;2377;51.734;8.950;2024-03-06T08:26:34;98358.31;;;7.33;100.00
27712;BME280;2377;51.734;8.950;2024-03-06T08:29:01;98361.69;;;7.34;100.00
27712;BME280;2377;51.734;8.950;2024-03-06T08:31:33;98367.53;;;7.34;100.00
27712;BME280;2377;51.734;8.950;2024-03-06T08:34:00;98365.00;;;7.34;100.00
27712;BME280;2377;51.734;8.950;2024-03-06T08:36:27;98370.88;;;7.35;100.00
27712;BME280;2377;51.734;8.950;2024-03-06T08:38:54;98374.38;;;7.34;100.00
27712;BME280;2377;51.734;8.950;2024-03-06T08:41:22;98373.25;;;7.36;100.00
27712;BME280;2377;51.734;8.950;2024-03-06T08:43:49;98378.50;;;7.35;100.00
27712;BME280;2377;51.734;8.950;2024-03-06T08:46:18;98379.13;;;7.37;100.00
27712;BME280;2377;51.734;8.950;2024-03-06T08:48:47;98380.69;;;7.38;100.00
27712;BME280;2377;51.734;8.950;2024-03-06T08:51:18;98386.38;;;7.40;100.00
27712;BME280;2377;51.734;8.950;2024-03-06T08:53:48;98387.00;;;7.42;100.00
27712;BME280;2377;51.734;8.950;2024-03-06T08:56:17;98384.28;;;7.44;100.00
27712;BME280;2377;51.734;8.950;2024-03-06T08:58:44;98385.47;;;7.48;100.00
27712;BME280;2377;51.734;8.950;2024-03-06T09:01:12;98384.53;;;7.49;100.00
27712;BME280;2377;51.734;8.950;2024-03-06T09:03:44;98384.94;;;7.52;100.00
27712;BME280;2377;51.734;8.950;2024-03-06T09:06:15;98391.44;;;7.55;100.00
27712;BME280;2377;51.734;8.950;2024-03-06T09:08:44;98395.41;;;7.57;100.00
27712;BME280;2377;51.734;8.950;2024-03-06T09:11:13;98392.66;;;7.59;100.00
27712;BME280;2377;51.734;8.950;2024-03-06T09:13:41;98395.66;;;7.62;100.00
27712;BME280;2377;51.734;8.950;2024-03-06T09:16:09;98394.69;;;7.63;100.00
27712;BME280;2377;51.734;8.950;2024-03-06T09:18:37;98397.84;;;7.66;100.00
27712;BME280;2377;51.734;8.950;2024-03-06T09:21:06;98399.44;;;7.67;100.00
27712;BME280;2377;51.734;8.950;2024-03-06T09:23:40;98404.94;;;7.70;100.00
27712;BME280;2377;51.734;8.950;2024-03-06T09:26:07;98410.88;;;7.77;100.00
27712;BME280;2377;51.734;8.950;2024-03-06T09:28:34;98415.59;;;7.80;100.00
27712;BME280;2377;51.734;8.950;2024-03-06T09:31:09;98413.34;;;7.86;100.00
27712;BME280;2377;51.734;8.950;2024-03-06T09:33:39;98418.84;;;7.89;100.00
27712;BME280;2377;51.734;8.950;2024-03-06T09:36:10;98413.22;;;7.94;100.00
27712;BME280;2377;51.734;8.950;2024-03-06T09:38:43;98423.22;;;7.95;100.00
27712;BME280;2377;51.734;8.950;2024-03-06T09:41:13;98428.72;;;7.99;100.00
27712;BME280;2377;51.734;8.950;2024-03-06T09:43:40;98421.72;;;8.01;100.00
27712;BME280;2377;51.734;8.950;2024-03-06T09:46:09;98428.41;;;8.02;100.00
27712;BME280;2377;51.734;8.950;2024-03-06T09:48:46;98424.69;;;8.04;100.00
27712;BME280;2377;51.734;8.950;2024-03-06T09:51:14;98426.44;;;8.04;100.00
27712;BME280;2377;51.734;8.950;2024-03-06T09:53:44;98427.59;;;8.01;100.00
27712;BME280;2377;51.734;8.950;2024-03-06T09:56:11;98426.44;;;8.04;100.00
27712;BME280;2377;51.734;8.950;2024-03-06T09:58:39;98430.38;;;8.07;100.00
27712;BME280;2377;51.734;8.950;2024-03-06T10:01:08;98426.50;;;8.11;100.00
27712;BME280;2377;51.734;8.950;2024-03-06T10:03:39;98435.38;;;8.15;100.00
27712;BME280;2377;51.734;8.950;2024-03-06T10:06:11;98430.09;;;8.16;100.00
27712;BME280;2377;51.734;8.950;2024-03-06T10:08:44;98436.38;;;8.20;100.00
27712;BME280;2377;51.734;8.950;2024-03-06T10:11:13;98438.06;;;8.28;100.00
27712;BME280;2377;51.734;8.950;2024-03-06T10:13:40;98435.53;;;8.35;100.00
27712;BME280;2377;51.734;8.950;2024-03-06T10:16:07;98446.34;;;8.37;100.00
27712;BME280;2377;51.734;8.950;2024-03-06T10:18:37;98440.09;;;8.39;100.00
27712;BME280;2377;51.734;8.950;2024-03-06T10:21:05;98447.22;;;8.44;100.00
27712;BME280;2377;51.734;8.950;2024-03-06T10:23:34;98445.28;;;8.46;100.00
27712;BME280;2377;51.734;8.950;2024-03-06T10:26:08;98451.59;;;8.50;100.00
27712;BME280;2377;51.734;8.950;2024-03-06T10:28:35;98454.16;;;8.50;100.00
27712;BME280;2377;51.734;8.950;2024-03-06T10:31:06;98453.53;;;8.48;100.00
27712;BME280;2377;51.734;8.950;2024-03-06T10:33:37;98453.72;;;8.46;100.00
27712;BME280;2377;51.734;8.950;2024-03-06T10:36:05;98459.78;;;8.45;100.00
27712;BME280;2377;51.734;8.950;2024-03-06T10:38:42;98458.03;;;8.46;100.00
27712;BME280;2377;51.734;8.950;2024-03-06T10:41:14;98460.56;;;8.46;100.00
27712;BME280;2377;51.734;8.950;2024-03-06T10:43:51;98462.94;;;8.48;100.00
27712;BME280;2377;51.734;8.950;2024-03-06T10:46:23;98466.44;;;8.46;100.00
27712;BME280;2377;51.734;8.950;2024-03-06T10:48:54;98469.19;;;8.45;100.00
27712;BME280;2377;51.734;8.950;2024-03-06T10:51:26;98466.81;;;8.43;100.00
27712;BME280;2377;51.734;8.950;2024-03-06T10:53:57;98473.69;;;8.43;100.00
27712;BME280;2377;51.734;8.950;2024-03-06T10:56:27;98468.41;;;8.44;100.00
27712;BME280;2377;51.734;8.950;2024-03-06T10:58:59;98463.31;;;8.44;100.00
27712;BME280;2377;51.734;8.950;2024-03-06T11:01:30;98470.97;;;8.44;100.00
27712;BME280;2377;51.734;8.950;2024-03-06T11:04:00;98467.25;;;8.47;100.00
27712;BME280;2377;51.734;8.950;2024-03-06T11:06:29;98474.53;;;8.50;100.00
27712;BME280;2377;51.734;8.950;2024-03-06T11:08:59;98484.16;;;8.55;100.00
27712;BME280;2377;51.734;8.950;2024-03-06T11:11:28;98484.97;;;8.55;100.00
27712;BME280;2377;51.734;8.950;2024-03-06T11:14:00;98473.59;;;8.58;100.00
27712;BME280;2377;51.734;8.950;2024-03-06T11:16:31;98483.47;;;8.61;100.00
27712;BME280;2377;51.734;8.950;2024-03-06T11:19:09;98482.28;;;8.63;100.00
27712;BME280;2377;51.734;8.950;2024-03-06T11:21:48;98485.47;;;8.65;100.00
27712;BME280;2377;51.734;8.950;2024-03-06T11:24:19;98485.09;;;8.68;100.00
27712;BME280;2377;51.734;8.950;2024-03-06T11:26:56;98488.66;;;8.74;100.00
27712;BME280;2377;51.734;8.950;2024-03-06T11:29:28;98486.34;;;8.79;100.00
27712;BME280;2377;51.734;8.950;2024-03-06T11:32:08;98493.63;;;8.82;100.00
27712;BME280;2377;51.734;8.950;2024-03-06T11:34:37;98494.25;;;8.84;100.00
27712;BME280;2377;51.734;8.950;2024-03-06T11:37:08;98494.25;;;8.84;100.00
27712;BME280;2377;51.734;8.950;2024-03-06T11:39:39;98492.66;;;8.83;100.00
27712;BME280;2377;51.734;8.950;2024-03-06T11:42:08;98500.50;;;8.82;99.47
27712;BME280;2377;51.734;8.950;2024-03-06T11:44:36;98502.84;;;8.83;99.51
27712;BME280;2377;51.734;8.950;2024-03-06T11:47:05;98502.47;;;8.86;99.61
27712;BME280;2377;51.734;8.950;2024-03-06T11:49:35;98501.50;;;8.87;99.58
27712;BME280;2377;51.734;8.950;2024-03-06T11:52:05;98502.47;;;8.86;98.87
27712;BME280;2377;51.734;8.950;2024-03-06T11:54:35;98498.19;;;8.87;99.59
27712;BME280;2377;51.734;8.950;2024-03-06T11:57:04;98501.34;;;8.89;99.05
27712;BME280;2377;51.734;8.950;2024-03-06T11:59:35;98498.59;;;8.91;99.79
27712;BME280;2377;51.734;8.950;2024-03-06T12:02:05;98501.38;;;8.96;99.75
27712;BME280;2377;51.734;8.950;2024-03-06T12:04:35;98498.03;;;8.95;99.94
27712;BME280;2377;51.734;8.950;2024-03-06T12:07:04;98498.66;;;8.97;99.22
27712;BME280;2377;51.734;8.950;2024-03-06T12:09:36;98502.75;;;8.98;98.21
27712;BME280;2377;51.734;8.950;2024-03-06T12:12:07;98497.31;;;9.01;99.21
27712;BME280;2377;51.734;8.950;2024-03-06T12:14:38;98500.81;;;9.00;97.34
27712;BME280;2377;51.734;8.950;2024-03-06T12:17:10;98504.34;;;8.99;97.93
27712;BME280;2377;51.734;8.950;2024-03-06T12:19:43;98509.06;;;9.02;98.14
27712;BME280;2377;51.734;8.950;2024-03-06T12:22:12;98511.06;;;9.07;97.67
27712;BME280;2377;51.734;8.950;2024-03-06T12:24:40;98509.31;;;9.07;98.29
27712;BME280;2377;51.734;8.950;2024-03-06T12:27:08;98516.97;;;9.07;97.97
27712;BME280;2377;51.734;8.950;2024-03-06T12:29:46;98515.41;;;9.06;97.72
27712;BME280;2377;51.734;8.950;2024-03-06T12:32:21;98518.31;;;9.03;97.95
27712;BME280;2377;51.734;8.950;2024-03-06T12:35:00;98521.59;;;8.97;97.98
27712;BME280;2377;51.734;8.950;2024-03-06T12:37:32;98522.38;;;8.98;97.90
27712;BME280;2377;51.734;8.950;2024-03-06T12:39:59;98512.97;;;8.98;98.05
27712;BME280;2377;51.734;8.950;2024-03-06T12:42:28;98514.56;;;8.99;98.19
27712;BME280;2377;51.734;8.950;2024-03-06T12:44:56;98511.63;;;9.02;98.02
27712;BME280;2377;51.734;8.950;2024-03-06T12:47:24;98509.50;;;9.06;97.74
27712;BME280;2377;51.734;8.950;2024-03-06T12:49:51;98517.94;;;9.06;97.45
27712;BME280;2377;51.734;8.950;2024-03-06T12:52:21;98507.75;;;9.06;97.32
27712;BME280;2377;51.734;8.950;2024-03-06T12:54:49;98516.19;;;9.07;97.19
27712;BME280;2377;51.734;8.950;2024-03-06T12:57:17;98512.66;;;9.08;97.21
27712;BME280;2377;51.734;8.950;2024-03-06T12:59:44;98515.16;;;9.01;97.50
27712;BME280;2377;51.734;8.950;2024-03-06T13:02:16;98514.78;;;9.04;97.93
27712;BME280;2377;51.734;8.950;2024-03-06T13:04:44;98512.22;;;9.04;97.38
27712;BME280;2377;51.734;8.950;2024-03-06T13:07:17;98518.56;;;9.08;97.24
27712;BME280;2377;51.734;8.950;2024-03-06T13:09:46;98516.97;;;9.07;96.29
27712;BME280;2377;51.734;8.950;2024-03-06T13:12:15;98516.00;;;9.08;95.94
27712;BME280;2377;51.734;8.950;2024-03-06T13:14:42;98513.63;;;9.07;95.25
27712;BME280;2377;51.734;8.950;2024-03-06T13:17:10;98514.59;;;9.06;95.47
27712;BME280;2377;51.734;8.950;2024-03-06T13:19:39;98514.06;;;9.10;96.88
27712;BME280;2377;51.734;8.950;2024-03-06T13:22:08;98522.31;;;9.13;96.25